Time;durP1;ratioP1;P1;durP2;ratioP2;P2;SDS_P1;SDS_P2;PMS_P1;PMS_P2;Temp;Humidity;BMP_temperature;BMP_pressure;BME280_temperature;BME280_humidity;BME280_pressure;Samples;Min_cycle;Max_cycle;Signal;HPM_P1;HPM_P2
2023/06/26 00:02:19;;;;;;;30.83;28.23;;;;;;;;;;5097049;28;20433;-80
2023/06/26 00:04:46;;;;;;;30.43;28.50;;;;;;;;;;5096578;28;20471;-80
2023/06/26 00:07:13;;;;;;;28.63;26.83;;;;;;;;;;5095702;28;20961;-79
2023/06/26 00:09:40;;;;;;;30.40;28.30;;;;;;;;;;5096646;28;20424;-79
2023/06/26 00:12:08;;;;;;;29.57;27.60;;;;;;;;;;5094758;28;20758;-80
2023/06/26 00:14:35;;;;;;;30.80;28.63;;;;;;;;;;5096083;28;20446;-80
2023/06/26 00:17:03;;;;;;;30.43;28.33;;;;;;;;;;5096499;28;20476;-80
2023/06/26 00:19:30;;;;;;;29.97;27.93;;;;;;;;;;5096455;28;20836;-80
2023/06/26 00:21:57;;;;;;;28.50;26.70;;;;;;;;;;5095913;28;20467;-80
2023/06/26 00:24:24;;;;;;;29.83;27.87;;;;;;;;;;5096068;28;20424;-77
2023/06/26 00:26:51;;;;;;;31.70;29.50;;;;;;;;;;5094750;28;20416;-79
2023/06/26 00:29:18;;;;;;;33.50;31.20;;;;;;;;;;5095968;28;20496;-80
2023/06/26 00:31:45;;;;;;;32.23;29.93;;;;;;;;;;5095194;28;20491;-79
2023/06/26 00:34:14;;;;;;;31.37;29.13;;;;;;;;;;5093960;28;20934;-79
2023/06/26 00:36:43;;;;;;;29.63;27.73;;;;;;;;;;5095618;28;20435;-79
2023/06/26 00:39:10;;;;;;;32.10;30.00;;;;;;;;;;5095654;28;20820;-79
2023/06/26 00:41:37;;;;;;;36.07;33.40;;;;;;;;;;5094805;28;21004;-79
2023/06/26 00:44:05;;;;;;;32.13;29.83;;;;;;;;;;5095273;28;20424;-79
2023/06/26 00:46:32;;;;;;;33.20;30.77;;;;;;;;;;5093932;28;20492;-78
2023/06/26 00:49:00;;;;;;;34.43;31.93;;;;;;;;;;5095399;28;20453;-77
2023/06/26 00:51:29;;;;;;;37.13;34.20;;;;;;;;;;5097761;28;20435;-79
2023/06/26 00:53:56;;;;;;;36.67;34.03;;;;;;;;;;5098188;28;20423;-78
2023/06/26 00:56:24;;;;;;;35.93;33.33;;;;;;;;;;5097125;28;20415;-76
2023/06/26 00:58:51;;;;;;;32.10;29.90;;;;;;;;;;5096211;28;20431;-77
2023/06/26 01:01:21;;;;;;;32.73;30.40;;;;;;;;;;5096400;28;20460;-77
2023/06/26 01:03:51;;;;;;;33.63;31.20;;;;;;;;;;5096761;28;20439;-78
2023/06/26 01:06:18;;;;;;;36.47;33.40;;;;;;;;;;5095890;28;20420;-76
2023/06/26 01:08:47;;;;;;;33.30;31.00;;;;;;;;;;5096275;28;20498;-78
2023/06/26 01:11:14;;;;;;;31.60;29.33;;;;;;;;;;5096236;28;20473;-77
2023/06/26 01:13:43;;;;;;;34.30;31.80;;;;;;;;;;5096117;28;20514;-78
2023/06/26 01:16:10;;;;;;;31.63;29.63;;;;;;;;;;5095494;28;20470;-78
2023/06/26 01:18:43;;;;;;;30.77;28.87;;;;;;;;;;5096414;28;20479;-79
2023/06/26 01:21:10;;;;;;;37.27;34.27;;;;;;;;;;5096181;28;20463;-77
2023/06/26 01:23:40;;;;;;;39.33;36.20;;;;;;;;;;5096019;28;20449;-77
2023/06/26 01:26:15;;;;;;;34.40;32.00;;;;;;;;;;5095030;28;20447;-76
2023/06/26 01:28:43;;;;;;;31.80;29.40;;;;;;;;;;5095806;28;20427;-79
2023/06/26 01:31:11;;;;;;;34.67;32.00;;;;;;;;;;5095019;28;20939;-79
2023/06/26 01:33:39;;;;;;;50.73;46.13;;;;;;;;;;5095458;28;20478;-78
2023/06/26 01:36:06;;;;;;;32.70;30.47;;;;;;;;;;5097351;28;20427;-79
2023/06/26 01:38:34;;;;;;;36.30;33.57;;;;;;;;;;5098334;28;20925;-78
2023/06/26 01:41:01;;;;;;;34.10;31.77;;;;;;;;;;5097038;28;20470;-78
2023/06/26 01:43:32;;;;;;;41.57;38.20;;;;;;;;;;5097054;28;20449;-78
2023/06/26 01:46:01;;;;;;;40.57;37.33;;;;;;;;;;5096950;28;20463;-78
2023/06/26 01:48:31;;;;;;;33.13;30.83;;;;;;;;;;5097088;28;20436;-79
2023/06/26 01:50:59;;;;;;;33.27;30.87;;;;;;;;;;5096765;28;20435;-78
2023/06/26 01:53:30;;;;;;;33.53;30.97;;;;;;;;;;5097068;28;20452;-77
2023/06/26 01:56:02;;;;;;;30.30;28.30;;;;;;;;;;5097124;28;20457;-79
2023/06/26 01:58:30;;;;;;;34.30;31.60;;;;;;;;;;5097461;28;20459;-80
2023/06/26 02:00:57;;;;;;;32.07;29.70;;;;;;;;;;5097047;28;20476;-78
2023/06/26 02:03:25;;;;;;;32.97;30.50;;;;;;;;;;5095964;28;20903;-80
2023/06/26 02:05:52;;;;;;;30.60;28.50;;;;;;;;;;5095315;28;20438;-80
2023/06/26 02:08:19;;;;;;;30.23;28.33;;;;;;;;;;5096929;28;20408;-79
2023/06/26 02:10:46;;;;;;;30.10;28.10;;;;;;;;;;5096848;28;20443;-80
2023/06/26 02:13:13;;;;;;;30.33;27.97;;;;;;;;;;5096219;28;20506;-80
2023/06/26 02:15:42;;;;;;;31.20;29.10;;;;;;;;;;5094524;28;20917;-78
2023/06/26 02:18:10;;;;;;;30.43;28.20;;;;;;;;;;5095647;28;20483;-78
2023/06/26 02:20:37;;;;;;;29.70;27.60;;;;;;;;;;5095050;28;20496;-77
2023/06/26 02:23:04;;;;;;;31.20;29.10;;;;;;;;;;5094890;28;20423;-78
2023/06/26 02:25:31;;;;;;;29.10;27.30;;;;;;;;;;5094708;28;20423;-77
2023/06/26 02:27:58;;;;;;;29.83;27.83;;;;;;;;;;5094862;28;20419;-78
2023/06/26 02:30:25;;;;;;;30.17;28.17;;;;;;;;;;5094517;28;20520;-78
2023/06/26 02:32:53;;;;;;;29.00;27.20;;;;;;;;;;5095021;28;20428;-75
2023/06/26 02:35:20;;;;;;;29.10;27.30;;;;;;;;;;5094560;28;20482;-77
2023/06/26 02:37:47;;;;;;;29.50;27.60;;;;;;;;;;5094094;28;20452;-77
2023/06/26 02:40:14;;;;;;;30.73;28.60;;;;;;;;;;5094477;28;20443;-77
2023/06/26 02:42:41;;;;;;;30.30;28.00;;;;;;;;;;5093969;28;20986;-77
2023/06/26 02:45:09;;;;;;;29.67;27.77;;;;;;;;;;5098953;28;20916;-77
2023/06/26 02:47:39;;;;;;;29.63;27.57;;;;;;;;;;5104647;28;20437;-78
2023/06/26 02:50:08;;;;;;;29.13;27.23;;;;;;;;;;5105136;28;20478;-77
2023/06/26 02:52:34;;;;;;;30.10;28.10;;;;;;;;;;5099833;28;20424;-78
2023/06/26 02:55:01;;;;;;;29.60;27.50;;;;;;;;;;5095690;28;20427;-77
2023/06/26 02:57:28;;;;;;;28.33;26.37;;;;;;;;;;5093474;28;20482;-78
2023/06/26 02:59:55;;;;;;;31.07;29.07;;;;;;;;;;5093681;28;21046;-78
2023/06/26 03:02:22;;;;;;;30.50;28.33;;;;;;;;;;5094098;28;20801;-77
2023/06/26 03:04:49;;;;;;;30.23;28.33;;;;;;;;;;5093964;28;20466;-78
2023/06/26 03:07:18;;;;;;;30.27;28.37;;;;;;;;;;5093655;28;20449;-77
2023/06/26 03:09:45;;;;;;;30.30;28.30;;;;;;;;;;5093106;28;20465;-78
2023/06/26 03:12:12;;;;;;;30.00;28.13;;;;;;;;;;5092952;28;20457;-78
2023/06/26 03:14:39;;;;;;;29.27;27.43;;;;;;;;;;5093621;28;20806;-78
2023/06/26 03:17:07;;;;;;;30.17;28.17;;;;;;;;;;5093204;28;20456;-77
2023/06/26 03:19:34;;;;;;;30.03;27.90;;;;;;;;;;5094012;28;20448;-78
2023/06/26 03:22:01;;;;;;;29.87;27.87;;;;;;;;;;5092545;28;20463;-75
2023/06/26 03:24:29;;;;;;;28.87;26.87;;;;;;;;;;5092665;28;20423;-75
2023/06/26 03:26:56;;;;;;;30.10;28.10;;;;;;;;;;5092183;28;20518;-75
2023/06/26 03:29:23;;;;;;;29.30;27.40;;;;;;;;;;5092651;28;20426;-76
2023/06/26 03:31:50;;;;;;;29.23;27.00;;;;;;;;;;5092542;28;20443;-75
2023/06/26 03:34:17;;;;;;;29.63;27.33;;;;;;;;;;5092381;28;20486;-75
2023/06/26 03:36:44;;;;;;;28.90;27.00;;;;;;;;;;5092046;28;20509;-75
2023/06/26 03:39:11;;;;;;;29.57;27.67;;;;;;;;;;5092082;28;20445;-74
2023/06/26 03:41:39;;;;;;;29.23;27.33;;;;;;;;;;5092146;28;20447;-75
2023/06/26 03:44:06;;;;;;;28.40;26.60;;;;;;;;;;5092234;28;20464;-75
2023/06/26 03:46:33;;;;;;;27.77;25.87;;;;;;;;;;5092008;28;20448;-75
2023/06/26 03:49:00;;;;;;;28.07;26.30;;;;;;;;;;5092108;28;20999;-76
2023/06/26 03:51:27;;;;;;;28.80;26.87;;;;;;;;;;5092094;28;20965;-75
2023/06/26 03:53:54;;;;;;;30.37;28.30;;;;;;;;;;5092241;28;20416;-76
2023/06/26 03:56:21;;;;;;;28.53;26.63;;;;;;;;;;5091817;28;20448;-77
2023/06/26 03:58:49;;;;;;;28.97;26.97;;;;;;;;;;5092231;28;20437;-75
2023/06/26 04:01:17;;;;;;;28.77;26.97;;;;;;;;;;5091333;28;20994;-76
2023/06/26 04:03:44;;;;;;;28.37;26.43;;;;;;;;;;5092357;28;20456;-76
2023/06/26 04:06:11;;;;;;;29.57;27.77;;;;;;;;;;5091626;28;20423;-75
2023/06/26 04:08:38;;;;;;;28.90;26.80;;;;;;;;;;5092215;28;21231;-75
2023/06/26 04:11:05;;;;;;;28.23;26.33;;;;;;;;;;5092205;28;20453;-75
2023/06/26 04:13:32;;;;;;;28.23;26.43;;;;;;;;;;5092401;28;20448;-75
2023/06/26 04:16:01;;;;;;;28.40;26.50;;;;;;;;;;5091406;28;20460;-75
2023/06/26 04:18:28;;;;;;;28.20;26.40;;;;;;;;;;5092285;28;20435;-75
2023/06/26 04:21:08;;;;;;;28.10;26.30;;;;;;;;;;5091868;28;20454;-76
2023/06/26 04:23:35;;;;;;;28.13;26.37;;;;;;;;;;5092801;28;20555;-76
2023/06/26 04:26:04;;;;;;;28.10;26.10;;;;;;;;;;5095620;28;20435;-77
2023/06/26 04:28:31;;;;;;;29.43;27.40;;;;;;;;;;5096079;28;20455;-77
2023/06/26 04:30:58;;;;;;;28.70;26.80;;;;;;;;;;5095960;28;20447;-76
2023/06/26 04:33:27;;;;;;;28.40;26.50;;;;;;;;;;5096235;28;20415;-76
2023/06/26 04:35:54;;;;;;;29.70;27.73;;;;;;;;;;5095236;28;20484;-76
2023/06/26 04:38:21;;;;;;;28.40;26.30;;;;;;;;;;5095685;28;20473;-77
2023/06/26 04:40:48;;;;;;;27.80;26.00;;;;;;;;;;5095151;28;20450;-76
2023/06/26 04:43:15;;;;;;;27.90;26.10;;;;;;;;;;5095569;28;20971;-77
2023/06/26 04:45:42;;;;;;;27.60;25.77;;;;;;;;;;5095288;28;20424;-77
2023/06/26 04:48:09;;;;;;;27.40;25.60;;;;;;;;;;5095955;28;20469;-78
2023/06/26 04:50:38;;;;;;;28.50;26.70;;;;;;;;;;5095675;28;20504;-74
2023/06/26 04:53:05;;;;;;;30.20;28.20;;;;;;;;;;5095629;28;20415;-75
2023/06/26 04:55:32;;;;;;;28.43;26.47;;;;;;;;;;5094961;28;20510;-77
2023/06/26 04:57:59;;;;;;;28.00;26.10;;;;;;;;;;5095226;28;20457;-75
2023/06/26 05:00:26;;;;;;;28.40;26.50;;;;;;;;;;5094403;28;20476;-75
2023/06/26 05:03:00;;;;;;;27.03;25.30;;;;;;;;;;5095321;28;20522;-75
2023/06/26 05:05:27;;;;;;;28.00;26.13;;;;;;;;;;5095195;28;20424;-74
2023/06/26 05:07:55;;;;;;;26.83;25.03;;;;;;;;;;5094889;28;20818;-75
2023/06/26 05:10:22;;;;;;;27.37;25.57;;;;;;;;;;5095022;28;20436;-75
2023/06/26 05:12:49;;;;;;;26.97;25.27;;;;;;;;;;5074945;28;20424;-75
2023/06/26 05:15:16;;;;;;;27.90;26.00;;;;;;;;;;5085091;28;20475;-76
2023/06/26 05:17:43;;;;;;;27.03;25.13;;;;;;;;;;5094351;28;20456;-76
2023/06/26 05:20:11;;;;;;;27.83;25.83;;;;;;;;;;5095021;28;20564;-75
2023/06/26 05:22:39;;;;;;;27.50;25.30;;;;;;;;;;5094802;28;20476;-75
2023/06/26 05:25:09;;;;;;;26.50;24.70;;;;;;;;;;5094856;28;20518;-75
2023/06/26 05:27:36;;;;;;;26.97;25.27;;;;;;;;;;5094336;28;20415;-75
2023/06/26 05:30:03;;;;;;;27.97;26.07;;;;;;;;;;5093721;28;20973;-76
2023/06/26 05:32:32;;;;;;;29.40;26.67;;;;;;;;;;5094752;28;21024;-75
2023/06/26 05:34:59;;;;;;;27.93;26.10;;;;;;;;;;5093680;28;20433;-75
2023/06/26 05:37:27;;;;;;;26.47;24.73;;;;;;;;;;5093723;28;20412;-75
2023/06/26 05:39:55;;;;;;;27.80;25.80;;;;;;;;;;5094466;28;20423;-75
2023/06/26 05:42:24;;;;;;;28.60;26.70;;;;;;;;;;5093768;28;20529;-74
2023/06/26 05:44:51;;;;;;;28.53;26.57;;;;;;;;;;5094383;28;20485;-75
2023/06/26 05:47:18;;;;;;;26.97;25.27;;;;;;;;;;5093814;28;20510;-76
2023/06/26 05:49:45;;;;;;;27.67;25.77;;;;;;;;;;5094184;28;20969;-84
2023/06/26 05:52:12;;;;;;;27.47;25.67;;;;;;;;;;5094049;28;20419;-74
2023/06/26 05:54:41;;;;;;;26.90;25.00;;;;;;;;;;5094755;28;20474;-77
2023/06/26 05:57:08;;;;;;;27.87;25.90;;;;;;;;;;5094332;28;20411;-76
2023/06/26 05:59:38;;;;;;;27.23;25.40;;;;;;;;;;5094558;28;20788;-77
2023/06/26 06:02:05;;;;;;;28.47;26.40;;;;;;;;;;5093644;28;20509;-77
2023/06/26 06:04:32;;;;;;;27.60;25.63;;;;;;;;;;5093936;28;20427;-79
2023/06/26 06:06:59;;;;;;;29.23;26.93;;;;;;;;;;5092890;28;20965;-78
2023/06/26 06:09:26;;;;;;;27.83;25.63;;;;;;;;;;5094300;28;20428;-78
2023/06/26 06:11:53;;;;;;;28.47;26.43;;;;;;;;;;5093138;28;20512;-77
2023/06/26 06:14:20;;;;;;;28.37;26.37;;;;;;;;;;5094418;28;20476;-78
2023/06/26 06:16:49;;;;;;;28.70;26.37;;;;;;;;;;5092942;28;20847;-76
2023/06/26 06:19:16;;;;;;;28.03;26.03;;;;;;;;;;5092965;28;20424;-78
2023/06/26 06:21:43;;;;;;;29.07;26.97;;;;;;;;;;5093059;28;20447;-78
2023/06/26 06:24:10;;;;;;;28.27;26.37;;;;;;;;;;5094518;28;20483;-78
2023/06/26 06:26:37;;;;;;;28.57;26.70;;;;;;;;;;5093548;28;20424;-77
2023/06/26 06:29:04;;;;;;;29.10;27.20;;;;;;;;;;5093720;28;20441;-76
2023/06/26 06:31:31;;;;;;;28.63;26.40;;;;;;;;;;5092743;28;20481;-76
2023/06/26 06:33:59;;;;;;;30.40;28.30;;;;;;;;;;5092820;28;20423;-76
2023/06/26 06:36:26;;;;;;;28.50;26.40;;;;;;;;;;5093001;28;20882;-77
2023/06/26 06:38:53;;;;;;;30.03;28.00;;;;;;;;;;5093451;28;20449;-76
2023/06/26 06:41:21;;;;;;;30.63;28.53;;;;;;;;;;5093218;28;20447;-77
2023/06/26 06:43:48;;;;;;;29.93;27.93;;;;;;;;;;5093310;28;20508;-76
2023/06/26 06:46:15;;;;;;;29.63;27.53;;;;;;;;;;5092766;28;20783;-77
2023/06/26 06:48:42;;;;;;;28.40;26.40;;;;;;;;;;5093540;28;20861;-77
2023/06/26 06:51:10;;;;;;;29.60;27.50;;;;;;;;;;5092783;28;20459;-77
2023/06/26 06:53:37;;;;;;;29.47;27.47;;;;;;;;;;5093344;28;20428;-76
2023/06/26 06:56:05;;;;;;;30.00;27.80;;;;;;;;;;5092837;28;20453;-77
2023/06/26 06:58:33;;;;;;;29.90;28.00;;;;;;;;;;5091921;28;20431;-77
2023/06/26 07:01:02;;;;;;;30.33;28.23;;;;;;;;;;5093378;28;20443;-77
2023/06/26 07:03:29;;;;;;;29.40;27.07;;;;;;;;;;5092373;28;20453;-77
2023/06/26 07:05:57;;;;;;;30.20;28.13;;;;;;;;;;5092685;28;20486;-75
2023/06/26 07:08:25;;;;;;;29.27;27.30;;;;;;;;;;5093036;28;20441;-76
2023/06/26 07:10:52;;;;;;;29.10;27.20;;;;;;;;;;5092805;28;20520;-75
2023/06/26 07:13:19;;;;;;;29.80;27.47;;;;;;;;;;5093839;28;20437;-76
2023/06/26 07:15:47;;;;;;;30.03;28.03;;;;;;;;;;5092433;28;20872;-76
2023/06/26 07:18:14;;;;;;;29.90;27.80;;;;;;;;;;5093079;28;20457;-75
2023/06/26 07:20:41;;;;;;;31.93;29.53;;;;;;;;;;5090556;28;20835;-75
2023/06/26 07:23:08;;;;;;;30.73;28.53;;;;;;;;;;5091416;28;20476;-75
2023/06/26 07:25:37;;;;;;;29.50;27.43;;;;;;;;;;5090710;28;20908;-76
2023/06/26 07:28:04;;;;;;;31.33;28.13;;;;;;;;;;5091777;28;20492;-76
2023/06/26 07:30:31;;;;;;;30.30;28.20;;;;;;;;;;5090946;28;20484;-75
2023/06/26 07:32:58;;;;;;;31.07;28.90;;;;;;;;;;5091844;28;20464;-76
2023/06/26 07:35:27;;;;;;;30.97;28.60;;;;;;;;;;5092821;28;20469;-76
2023/06/26 07:37:54;;;;;;;31.37;28.93;;;;;;;;;;5092631;28;20449;-76
2023/06/26 07:40:21;;;;;;;28.67;26.67;;;;;;;;;;5092696;28;20500;-76
2023/06/26 07:42:50;;;;;;;30.40;28.17;;;;;;;;;;5091702;28;21004;-75
2023/06/26 07:45:17;;;;;;;31.40;28.83;;;;;;;;;;5092609;28;20870;-74
2023/06/26 07:47:44;;;;;;;32.10;29.77;;;;;;;;;;5092493;28;20427;-75
2023/06/26 07:50:11;;;;;;;29.73;27.63;;;;;;;;;;5092766;28;20447;-75
2023/06/26 07:52:38;;;;;;;30.90;28.40;;;;;;;;;;5092929;28;20537;-76
2023/06/26 07:55:05;;;;;;;29.03;26.77;;;;;;;;;;5092522;28;20518;-75
2023/06/26 07:57:33;;;;;;;29.90;27.70;;;;;;;;;;5092251;28;20419;-75
2023/06/26 08:00:01;;;;;;;30.27;28.10;;;;;;;;;;5095458;28;20993;-75
2023/06/26 08:02:28;;;;;;;30.80;27.73;;;;;;;;;;5097241;28;20448;-76
2023/06/26 08:04:55;;;;;;;28.40;26.00;;;;;;;;;;5096973;28;20522;-77
2023/06/26 08:07:22;;;;;;;31.23;28.50;;;;;;;;;;5099115;28;20423;-77
2023/06/26 08:09:49;;;;;;;28.07;25.87;;;;;;;;;;5097232;28;20449;-77
2023/06/26 08:12:16;;;;;;;28.37;26.30;;;;;;;;;;5097365;28;20492;-76
2023/06/26 08:14:43;;;;;;;30.07;27.57;;;;;;;;;;5096499;28;20496;-76
2023/06/26 08:17:11;;;;;;;28.57;26.27;;;;;;;;;;5096003;28;20457;-75
2023/06/26 08:19:38;;;;;;;26.77;24.90;;;;;;;;;;5096584;28;20498;-76
2023/06/26 08:22:06;;;;;;;26.77;24.77;;;;;;;;;;5096860;28;20423;-76
2023/06/26 08:24:33;;;;;;;28.07;25.63;;;;;;;;;;5096050;28;20474;-76
2023/06/26 08:27:00;;;;;;;28.17;25.77;;;;;;;;;;5095773;28;20472;-75
2023/06/26 08:29:27;;;;;;;27.40;25.30;;;;;;;;;;5096023;28;20858;-77
2023/06/26 08:31:54;;;;;;;28.40;26.20;;;;;;;;;;5096186;28;20464;-76
2023/06/26 08:34:22;;;;;;;41.70;37.80;;;;;;;;;;5096372;28;20472;-77
2023/06/26 08:36:49;;;;;;;30.57;28.27;;;;;;;;;;5095756;28;20448;-77
2023/06/26 08:39:16;;;;;;;32.53;30.13;;;;;;;;;;5096394;28;20482;-76
2023/06/26 08:41:43;;;;;;;31.10;28.53;;;;;;;;;;5095959;28;20479;-76
2023/06/26 08:44:10;;;;;;;31.13;28.03;;;;;;;;;;5096758;28;20459;-82
2023/06/26 08:46:37;;;;;;;29.50;27.20;;;;;;;;;;5096796;28;20423;-80
2023/06/26 08:49:09;;;;;;;29.87;27.23;;;;;;;;;;5096253;28;20486;-74
2023/06/26 08:51:39;;;;;;;28.83;26.70;;;;;;;;;;5095947;28;20492;-75
2023/06/26 08:54:08;;;;;;;29.43;27.03;;;;;;;;;;5095803;28;20951;-75
2023/06/26 08:56:37;;;;;;;28.97;26.57;;;;;;;;;;5096138;28;20466;-75
2023/06/26 08:59:05;;;;;;;29.03;26.50;;;;;;;;;;5095561;28;20492;-75
2023/06/26 09:01:33;;;;;;;28.87;26.80;;;;;;;;;;5095822;28;20475;-75
2023/06/26 09:04:00;;;;;;;29.70;27.20;;;;;;;;;;5095863;28;20480;-75
2023/06/26 09:06:27;;;;;;;31.13;28.77;;;;;;;;;;5095418;28;20449;-75
2023/06/26 09:08:55;;;;;;;28.83;26.40;;;;;;;;;;5095592;28;20445;-75
2023/06/26 09:11:22;;;;;;;27.50;25.10;;;;;;;;;;5095019;28;20481;-76
2023/06/26 09:13:49;;;;;;;29.30;26.90;;;;;;;;;;5095432;28;20938;-77
2023/06/26 09:16:16;;;;;;;28.43;26.23;;;;;;;;;;5095904;28;20847;-76
2023/06/26 09:18:43;;;;;;;30.40;27.90;;;;;;;;;;5095688;28;20472;-76
2023/06/26 09:21:11;;;;;;;30.17;27.87;;;;;;;;;;5094952;28;20488;-76
2023/06/26 09:23:38;;;;;;;29.70;27.30;;;;;;;;;;5095425;28;20459;-74
2023/06/26 09:26:06;;;;;;;28.80;26.40;;;;;;;;;;5098357;28;20510;-76
2023/06/26 09:28:34;;;;;;;30.23;27.70;;;;;;;;;;5096842;28;20441;-76
2023/06/26 09:31:04;;;;;;;28.40;26.20;;;;;;;;;;5096309;28;20840;-75
2023/06/26 09:33:35;;;;;;;30.83;28.53;;;;;;;;;;5097974;28;20445;-75
2023/06/26 09:36:02;;;;;;;30.20;27.20;;;;;;;;;;5094824;28;20431;-77
2023/06/26 09:38:29;;;;;;;30.13;27.83;;;;;;;;;;5095433;28;20469;-76
2023/06/26 09:40:56;;;;;;;29.87;27.23;;;;;;;;;;5095276;28;20551;-76
2023/06/26 09:43:25;;;;;;;30.60;28.00;;;;;;;;;;5096613;28;20480;-76
2023/06/26 09:45:53;;;;;;;29.20;26.53;;;;;;;;;;5095192;28;20506;-75
2023/06/26 09:48:20;;;;;;;30.10;27.67;;;;;;;;;;5095871;28;20510;-75
2023/06/26 09:50:47;;;;;;;29.70;27.30;;;;;;;;;;5095416;28;20459;-75
2023/06/26 09:53:15;;;;;;;28.70;26.40;;;;;;;;;;5095926;28;20445;-76
2023/06/26 09:55:43;;;;;;;28.90;26.80;;;;;;;;;;5095547;28;20427;-76
2023/06/26 09:58:14;;;;;;;30.30;27.70;;;;;;;;;;5095565;28;20424;-75
2023/06/26 10:00:43;;;;;;;30.30;28.20;;;;;;;;;;5095100;28;20455;-75
2023/06/26 10:03:10;;;;;;;30.93;28.50;;;;;;;;;;5094904;28;20499;-76
2023/06/26 10:05:37;;;;;;;30.40;27.90;;;;;;;;;;5091174;28;20510;-77
2023/06/26 10:08:06;;;;;;;28.63;26.60;;;;;;;;;;5095099;28;20449;-76
2023/06/26 10:10:33;;;;;;;29.47;27.23;;;;;;;;;;5094309;28;20466;-76
2023/06/26 10:13:01;;;;;;;27.97;25.67;;;;;;;;;;5095565;28;20451;-75
2023/06/26 10:15:29;;;;;;;29.47;26.77;;;;;;;;;;5094478;28;20412;-75
2023/06/26 10:17:58;;;;;;;29.40;27.00;;;;;;;;;;5092698;28;20424;-76
2023/06/26 10:20:25;;;;;;;28.50;26.53;;;;;;;;;;5092273;28;20489;-76
2023/06/26 10:22:53;;;;;;;28.73;26.70;;;;;;;;;;5093661;28;20510;-75
2023/06/26 10:25:20;;;;;;;29.20;26.80;;;;;;;;;;5098915;28;20548;-83
2023/06/26 10:27:49;;;;;;;29.30;27.20;;;;;;;;;;5099082;28;20457;-87
2023/06/26 10:30:19;;;;;;;29.20;27.13;;;;;;;;;;5096028;28;20449;-77
2023/06/26 10:32:47;;;;;;;28.03;26.13;;;;;;;;;;5094109;28;20404;-75
2023/06/26 10:35:15;;;;;;;31.20;28.57;;;;;;;;;;5092821;28;20464;-76
2023/06/26 10:37:43;;;;;;;28.87;26.67;;;;;;;;;;5094208;28;20419;-79
2023/06/26 10:40:11;;;;;;;29.33;27.33;;;;;;;;;;5094514;28;20482;-75
2023/06/26 10:42:38;;;;;;;32.37;29.80;;;;;;;;;;5093108;28;20427;-75
2023/06/26 10:45:13;;;;;;;31.40;28.70;;;;;;;;;;5093797;28;20882;-76
2023/06/26 10:47:41;;;;;;;27.40;25.40;;;;;;;;;;5092281;28;20421;-76
2023/06/26 10:50:19;;;;;;;26.93;25.13;;;;;;;;;;5093183;28;20476;-76
2023/06/26 10:52:46;;;;;;;25.83;23.87;;;;;;;;;;5093395;28;20429;-75
2023/06/26 10:55:15;;;;;;;27.60;25.30;;;;;;;;;;5093196;28;20472;-76
2023/06/26 10:57:46;;;;;;;26.43;24.63;;;;;;;;;;5092748;28;20428;-76
2023/06/26 11:00:15;;;;;;;27.00;24.70;;;;;;;;;;5092641;28;20459;-76
2023/06/26 11:02:51;;;;;;;26.53;24.50;;;;;;;;;;5092940;28;20419;-75
2023/06/26 11:05:29;;;;;;;26.77;24.93;;;;;;;;;;5092555;28;20971;-75
2023/06/26 11:08:05;;;;;;;28.43;26.00;;;;;;;;;;5092565;28;20897;-75
2023/06/26 11:10:47;;;;;;;27.17;25.27;;;;;;;;;;5093051;28;20453;-75
2023/06/26 11:13:15;;;;;;;26.83;24.83;;;;;;;;;;5092735;28;20404;-76
2023/06/26 11:15:44;;;;;;;26.70;24.80;;;;;;;;;;5091364;28;20959;-77
2023/06/26 11:18:11;;;;;;;26.67;24.53;;;;;;;;;;5092745;28;20449;-76
2023/06/26 11:20:40;;;;;;;26.37;24.47;;;;;;;;;;5092652;28;20447;-77
2023/06/26 11:23:07;;;;;;;25.90;24.10;;;;;;;;;;5094569;28;21259;-76
2023/06/26 11:25:36;;;;;;;26.90;25.00;;;;;;;;;;5092265;28;20484;-82
2023/06/26 11:28:04;;;;;;;25.70;23.80;;;;;;;;;;5093369;28;20455;-77
2023/06/26 11:30:31;;;;;;;26.43;24.33;;;;;;;;;;5090491;28;20526;-77
2023/06/26 11:33:04;;;;;;;25.90;24.07;;;;;;;;;;5088904;28;20419;-80
2023/06/26 11:35:32;;;;;;;25.87;23.77;;;;;;;;;;5094265;28;20934;-78
2023/06/26 11:38:01;;;;;;;25.83;23.80;;;;;;;;;;5094097;28;20445;-78
2023/06/26 11:40:31;;;;;;;24.70;23.00;;;;;;;;;;5093581;28;21000;-78
2023/06/26 11:42:58;;;;;;;25.80;24.00;;;;;;;;;;5094008;28;20429;-78
2023/06/26 11:45:25;;;;;;;25.80;24.00;;;;;;;;;;5093970;28;20459;-79
2023/06/26 11:47:52;;;;;;;25.77;24.00;;;;;;;;;;5093757;28;20506;-78
2023/06/26 11:50:19;;;;;;;26.00;24.20;;;;;;;;;;5092981;28;21057;-79
2023/06/26 11:52:46;;;;;;;25.57;23.53;;;;;;;;;;5093552;28;20972;-78
2023/06/26 11:55:15;;;;;;;27.37;24.83;;;;;;;;;;5093831;28;20457;-78
2023/06/26 11:57:42;;;;;;;25.77;23.70;;;;;;;;;;5092993;28;20420;-77
2023/06/26 12:00:12;;;;;;;25.10;23.23;;;;;;;;;;5093090;28;20473;-77
2023/06/26 12:02:39;;;;;;;25.00;23.10;;;;;;;;;;5094004;28;20465;-78
2023/06/26 12:05:07;;;;;;;24.80;23.00;;;;;;;;;;5093813;28;20489;-78
2023/06/26 12:07:36;;;;;;;24.40;22.60;;;;;;;;;;5093586;28;20460;-77
2023/06/26 12:10:04;;;;;;;24.90;23.20;;;;;;;;;;5092824;28;20468;-77
2023/06/26 12:12:33;;;;;;;26.27;24.23;;;;;;;;;;5093380;28;20482;-79
2023/06/26 12:15:00;;;;;;;25.43;23.73;;;;;;;;;;5094068;28;20479;-78
2023/06/26 12:17:27;;;;;;;25.73;23.70;;;;;;;;;;5093451;28;20506;-78
2023/06/26 12:19:54;;;;;;;25.90;24.10;;;;;;;;;;5092850;28;20430;-77
2023/06/26 12:22:21;;;;;;;24.80;23.10;;;;;;;;;;5092710;28;20472;-76
2023/06/26 12:24:49;;;;;;;25.43;23.73;;;;;;;;;;5093316;28;20538;-78
2023/06/26 12:27:17;;;;;;;25.57;23.73;;;;;;;;;;5092252;28;20427;-78
2023/06/26 12:29:47;;;;;;;26.40;24.40;;;;;;;;;;5093390;28;20820;-79
2023/06/26 12:32:14;;;;;;;25.37;23.57;;;;;;;;;;5094126;28;20543;-78
2023/06/26 12:34:41;;;;;;;26.53;24.40;;;;;;;;;;5093270;28;20436;-77
2023/06/26 12:37:09;;;;;;;25.33;23.60;;;;;;;;;;5093176;28;20480;-77
2023/06/26 12:39:50;;;;;;;27.13;25.20;;;;;;;;;;5093166;28;20453;-77
2023/06/26 12:42:18;;;;;;;26.30;24.10;;;;;;;;;;5092979;28;20506;-79
2023/06/26 12:44:47;;;;;;;26.90;24.63;;;;;;;;;;5092707;28;20507;-77
2023/06/26 12:47:14;;;;;;;25.33;23.53;;;;;;;;;;5097860;28;20407;-79
2023/06/26 12:49:42;;;;;;;24.60;22.90;;;;;;;;;;5096767;28;20468;-78
2023/06/26 12:52:09;;;;;;;24.03;22.53;;;;;;;;;;5094565;28;20429;-79
2023/06/26 12:54:37;;;;;;;25.53;23.57;;;;;;;;;;5098582;28;21203;-81
2023/06/26 12:57:04;;;;;;;24.17;22.57;;;;;;;;;;5098111;28;20423;-77
2023/06/26 12:59:31;;;;;;;25.33;23.43;;;;;;;;;;5096716;28;20427;-77
2023/06/26 13:02:00;;;;;;;24.40;22.70;;;;;;;;;;5096016;28;20533;-77
2023/06/26 13:04:27;;;;;;;24.30;22.50;;;;;;;;;;5096135;28;20889;-77
2023/06/26 13:06:55;;;;;;;25.00;23.10;;;;;;;;;;5096081;28;20453;-76
2023/06/26 13:09:22;;;;;;;25.30;23.70;;;;;;;;;;5099511;28;20429;-78
2023/06/26 13:11:49;;;;;;;25.37;23.77;;;;;;;;;;5105350;28;20465;-78
2023/06/26 13:14:16;;;;;;;24.97;23.20;;;;;;;;;;5100569;28;20419;-77
2023/06/26 13:16:43;;;;;;;25.50;23.70;;;;;;;;;;5102279;28;20531;-90
2023/06/26 13:19:12;;;;;;;25.33;23.63;;;;;;;;;;5102763;28;20445;-84
2023/06/26 13:21:39;;;;;;;25.47;23.73;;;;;;;;;;5094420;28;20463;-80
2023/06/26 13:24:06;;;;;;;24.40;22.70;;;;;;;;;;5095400;28;20448;-76
2023/06/26 13:26:34;;;;;;;25.03;23.20;;;;;;;;;;5094465;28;20456;-76
2023/06/26 13:29:01;;;;;;;25.17;23.37;;;;;;;;;;5094786;28;20449;-76
2023/06/26 13:31:28;;;;;;;25.23;23.47;;;;;;;;;;5094154;28;20481;-76
2023/06/26 13:33:55;;;;;;;25.87;23.90;;;;;;;;;;5094875;28;20449;-76
2023/06/26 13:36:24;;;;;;;25.00;23.27;;;;;;;;;;5093829;28;20817;-75
2023/06/26 13:38:55;;;;;;;25.37;23.67;;;;;;;;;;5094233;28;20469;-76
2023/06/26 13:41:22;;;;;;;25.03;23.33;;;;;;;;;;5093748;28;20462;-76
2023/06/26 13:43:49;;;;;;;25.30;23.57;;;;;;;;;;5094771;28;20477;-76
2023/06/26 13:46:16;;;;;;;24.63;22.97;;;;;;;;;;5094296;28;20455;-76
2023/06/26 13:48:43;;;;;;;26.63;24.57;;;;;;;;;;5094697;28;20455;-76
2023/06/26 13:51:10;;;;;;;24.90;23.00;;;;;;;;;;5095379;28;20869;-81
2023/06/26 13:53:39;;;;;;;25.10;23.40;;;;;;;;;;5094839;28;20477;-75
2023/06/26 13:56:06;;;;;;;25.20;23.50;;;;;;;;;;5093283;28;20453;-77
2023/06/26 13:58:33;;;;;;;25.07;23.27;;;;;;;;;;5094168;28;20445;-75
2023/06/26 14:01:00;;;;;;;24.93;23.23;;;;;;;;;;5093078;28;20457;-75
2023/06/26 14:03:28;;;;;;;25.20;23.50;;;;;;;;;;5091023;28;20468;-76
2023/06/26 14:05:55;;;;;;;25.10;23.50;;;;;;;;;;5091743;28;20988;-76
2023/06/26 14:08:22;;;;;;;25.20;23.40;;;;;;;;;;5093473;28;20453;-75
2023/06/26 14:10:50;;;;;;;24.80;23.10;;;;;;;;;;5093550;28;20987;-75
2023/06/26 14:13:17;;;;;;;24.63;22.93;;;;;;;;;;5093422;28;20443;-76
2023/06/26 14:15:44;;;;;;;25.00;23.00;;;;;;;;;;5093272;28;20427;-75
2023/06/26 14:18:11;;;;;;;25.07;23.30;;;;;;;;;;5093781;28;20420;-77
2023/06/26 14:20:39;;;;;;;23.60;22.00;;;;;;;;;;5093634;28;20497;-75